Time;durP1;ratioP1;P1;durP2;ratioP2;P2;SDS_P1;SDS_P2;PMS_P1;PMS_P2;Temp;Humidity;BMP_temperature;BMP_pressure;BME280_temperature;BME280_humidity;BME280_pressure;Samples;Min_cycle;Max_cycle;Signal;HPM_P1;HPM_P2
2023/02/11 00:01:34;;;;;;;50.60;23.20;;;;;;;16.70;26.74;101346.23;108218;1252;61306;-66
2023/02/11 00:04:03;;;;;;;47.10;21.50;;;;;;;16.79;26.80;101344.11;108278;1254;73207;-65
2023/02/11 00:06:32;;;;;;;46.70;21.70;;;;;;;16.45;27.00;101341.50;108226;1254;70554;-66
2023/02/11 00:09:01;;;;;;;43.70;20.40;;;;;;;16.42;26.98;101344.08;108247;1256;71711;-66
2023/02/11 00:11:29;;;;;;;46.00;22.40;;;;;;;16.74;26.90;101337.44;108214;1253;60640;-67
2023/02/11 00:13:59;;;;;;;51.30;22.60;;;;;;;16.04;27.42;101340.85;108164;1253;61377;-66
2023/02/11 00:16:28;;;;;;;47.40;23.00;;;;;;;16.17;27.53;101339.60;108170;1253;74340;-66
2023/02/11 00:19:00;;;;;;;50.70;23.00;;;;;;;16.10;27.56;101345.23;108199;1253;68173;-66
2023/02/11 00:21:29;;;;;;;44.50;22.20;;;;;;;16.31;27.30;101345.07;108188;1253;71945;-65
2023/02/11 00:23:58;;;;;;;42.50;20.30;;;;;;;15.70;27.84;101351.38;108149;1253;60491;-66
2023/02/11 00:26:32;;;;;;;48.50;21.20;;;;;;;14.98;28.62;101353.52;108129;1253;61694;-65
2023/02/11 00:29:01;;;;;;;44.60;22.70;;;;;;;14.78;28.97;101350.70;108268;1253;73070;-63
2023/02/11 00:31:31;;;;;;;46.20;20.70;;;;;;;15.38;28.80;101348.00;108000;1253;70272;-65
2023/02/11 00:34:00;;;;;;;47.20;23.00;;;;;;;16.37;27.66;101349.61;108259;1253;73262;-66
2023/02/11 00:36:28;;;;;;;47.80;22.40;;;;;;;16.39;27.47;101351.14;108352;1253;60499;-67
2023/02/11 00:38:57;;;;;;;48.80;21.70;;;;;;;16.34;27.52;101349.38;108306;1252;60373;-66
2023/02/11 00:41:25;;;;;;;46.40;22.00;;;;;;;16.13;27.70;101343.84;108149;1253;73928;-66
2023/02/11 00:43:53;;;;;;;46.30;21.30;;;;;;;16.25;27.73;101339.65;108202;1253;71251;-66
2023/02/11 00:46:22;;;;;;;50.30;22.50;;;;;;;16.20;27.59;101338.07;108283;1253;72904;-66
2023/02/11 00:48:52;;;;;;;52.70;22.60;;;;;;;15.87;28.02;101343.86;108147;1253;61380;-65
2023/02/11 00:51:25;;;;;;;48.40;21.60;;;;;;;15.64;28.36;101342.07;108262;1253;61617;-65
2023/02/11 00:53:54;;;;;;;46.90;20.90;;;;;;;15.92;28.13;101340.08;108352;1253;73967;-65
2023/02/11 00:56:24;;;;;;;39.40;19.10;;;;;;;16.51;27.57;101333.27;108328;1253;70586;-65
2023/02/11 00:58:52;;;;;;;43.20;21.30;;;;;;;16.15;27.75;101336.73;108141;1253;73545;-66
2023/02/11 01:01:21;;;;;;;42.50;21.30;;;;;;;16.07;27.84;101329.59;108201;1253;60602;-65
2023/02/11 01:03:49;;;;;;;42.50;20.50;;;;;;;15.68;28.37;101326.16;108311;1253;61171;-66
2023/02/11 01:06:17;;;;;;;49.00;21.50;;;;;;;15.74;28.22;101326.80;108356;1253;74315;-66
2023/02/11 01:08:45;;;;;;;41.50;20.20;;;;;;;16.35;27.65;101323.30;108206;1253;71507;-63
2023/02/11 01:11:18;;;;;;;48.10;21.60;;;;;;;15.70;28.44;101331.04;108349;1253;73545;-65
2023/02/11 01:13:48;;;;;;;52.00;23.20;;;;;;;15.28;28.81;101334.23;108305;1253;59727;-66
2023/02/11 01:16:16;;;;;;;40.50;20.80;;;;;;;15.75;28.47;101332.27;108243;1253;61177;-66
2023/02/11 01:18:46;;;;;;;47.70;22.50;;;;;;;15.57;28.64;101336.14;108206;1253;74279;-66
2023/02/11 01:21:17;;;;;;;47.10;21.60;;;;;;;15.51;28.57;101335.11;108129;1252;71138;-65
2023/02/11 01:23:45;;;;;;;43.10;20.20;;;;;;;16.27;27.99;101331.95;108099;1254;72688;-65
2023/02/11 01:26:13;;;;;;;42.60;20.80;;;;;;;16.35;27.61;101332.84;108256;1253;60834;-65
2023/02/11 01:28:41;;;;;;;46.60;21.20;;;;;;;15.74;28.46;101338.86;108126;1258;60590;-64
2023/02/11 01:31:10;;;;;;;47.90;21.40;;;;;;;15.70;28.74;101338.65;108146;1253;74294;-66
2023/02/11 01:33:40;;;;;;;49.10;22.20;;;;;;;15.76;28.57;101335.23;108088;1253;70372;-65
2023/02/11 01:36:10;;;;;;;45.70;21.50;;;;;;;15.81;28.52;101334.49;108122;1253;73343;-64
2023/02/11 01:38:39;;;;;;;39.70;19.50;;;;;;;15.87;28.43;101333.02;108073;1253;59395;-69
2023/02/11 01:41:09;;;;;;;49.50;21.10;;;;;;;15.68;28.68;101335.90;108216;1253;61344;-66
2023/02/11 01:43:41;;;;;;;40.50;20.10;;;;;;;15.59;28.86;101338.70;108208;1252;73077;-66
2023/02/11 01:46:30;;;;;;;50.30;22.20;;;;;;;15.81;28.51;101334.38;108342;1253;70292;-65
2023/02/11 01:49:24;;;;;;;40.20;19.80;;;;;;;16.56;27.80;101327.38;108296;1253;72572;-65
2023/02/11 01:51:57;;;;;;;43.20;19.50;;;;;;;16.32;28.12;101323.24;108121;1252;59888;-66
2023/02/11 01:57:26;;;;;;;48.50;21.20;;;;;;;16.14;28.03;101310.86;108266;1253;74027;-66
2023/02/11 02:00:07;;;;;;;47.20;21.80;;;;;;;16.03;28.33;101311.15;108208;1253;71289;-65
2023/02/11 02:02:59;;;;;;;42.10;19.90;;;;;;;16.06;28.20;101309.25;108075;1252;73702;-66
2023/02/11 02:05:41;;;;;;;48.80;21.70;;;;;;;15.55;28.55;101312.67;108066;1253;60350;-65
2023/02/11 02:08:16;;;;;;;46.90;19.90;;;;;;;15.16;29.08;101309.89;108279;1252;59794;-65
2023/02/11 02:10:52;;;;;;;44.10;20.10;;;;;;;15.16;29.01;101312.23;108248;1254;73346;-64
2023/02/11 02:13:20;;;;;;;39.20;19.30;;;;;;;15.48;28.78;101309.40;108183;1254;71324;-63
2023/02/11 02:16:03;;;;;;;46.70;18.90;;;;;;;15.46;28.86;101303.45;108217;1253;72904;-66
2023/02/11 02:18:47;;;;;;;50.70;21.30;;;;;;;15.50;28.66;101300.65;108165;1256;60357;-64
2023/02/11 02:21:39;;;;;;;41.00;19.20;;;;;;;15.52;28.77;101303.59;108159;1252;60284;-65
2023/02/11 02:24:23;;;;;;;43.10;19.80;;;;;;;15.69;28.52;101300.11;108307;1253;73845;-65
2023/02/11 02:27:22;;;;;;;46.70;22.30;;;;;;;15.82;28.32;101291.79;108151;1253;71118;-65
2023/02/11 02:30:27;;;;;;;49.60;22.50;;;;;;;15.95;28.17;101295.01;108228;1253;73639;-66
2023/02/11 02:33:21;;;;;;;42.90;20.80;;;;;;;15.70;28.42;101296.00;108317;1254;61897;-66
2023/02/11 02:36:30;;;;;;;41.20;20.70;;;;;;;15.88;28.38;101293.48;108303;1254;61265;-67
2023/02/11 02:39:09;;;;;;;48.70;22.50;;;;;;;15.36;29.08;101299.60;108150;1254;72713;-64
2023/02/11 02:41:38;;;;;;;58.30;25.30;;;;;;;15.91;28.47;101299.23;108211;1253;71174;-66
2023/02/11 02:44:06;;;;;;;50.80;22.20;;;;;;;16.07;28.47;101294.16;108175;1255;72574;-63
2023/02/11 02:46:36;;;;;;;52.00;24.00;;;;;;;16.17;28.25;101294.61;108217;1254;60217;-67
2023/02/11 02:49:06;;;;;;;47.50;22.40;;;;;;;16.39;27.99;101292.44;108214;1254;60332;-65
2023/02/11 02:51:59;;;;;;;51.10;22.20;;;;;;;16.14;28.09;101292.77;108211;1254;74635;-65
2023/02/11 02:54:27;;;;;;;53.20;22.80;;;;;;;16.02;28.25;101294.87;108172;1254;71554;-65
2023/02/11 02:57:12;;;;;;;53.30;24.20;;;;;;;16.16;28.14;101294.30;108160;1254;72585;-63
2023/02/11 02:59:44;;;;;;;53.10;22.30;;;;;;;16.42;28.01;101289.66;108184;1254;60507;-64
2023/02/11 03:02:34;;;;;;;55.50;23.30;;;;;;;16.18;28.13;101288.02;108151;1258;61751;-64
2023/02/11 03:05:09;;;;;;;49.60;22.50;;;;;;;16.00;28.45;101290.20;108206;1254;71012;-63
2023/02/11 03:07:44;;;;;;;47.70;22.10;;;;;;;15.63;28.99;101293.41;108126;1258;71345;-64
2023/02/11 03:10:16;;;;;;;54.60;24.50;;;;;;;15.65;28.73;101295.79;108222;1254;74125;-65
2023/02/11 03:12:45;;;;;;;59.20;23.40;;;;;;;15.62;28.84;101297.00;108141;1254;62492;-65
2023/02/11 03:15:13;;;;;;;56.50;24.30;;;;;;;15.33;29.57;101296.35;108232;1253;61399;-65
2023/02/11 03:17:44;;;;;;;47.80;22.80;;;;;;;15.59;29.08;101299.60;108148;1254;74177;-66
2023/02/11 03:20:14;;;;;;;48.10;21.20;;;;;;;15.14;29.69;101297.77;108271;1254;70948;-64
2023/02/11 03:22:47;;;;;;;50.70;22.50;;;;;;;14.82;30.05;101297.20;108128;1257;73887;-61
2023/02/11 03:25:15;;;;;;;54.40;23.30;;;;;;;15.17;29.84;101293.04;108223;1253;59539;-63
2023/02/11 03:27:52;;;;;;;50.10;23.20;;;;;;;14.93;30.17;101286.52;108253;1254;61499;-63
2023/02/11 03:30:26;;;;;;;57.50;27.00;;;;;;;14.95;30.27;101282.57;108209;1253;73881;-61
2023/02/11 03:33:17;;;;;;;55.30;23.30;;;;;;;14.59;30.68;101278.73;108119;1254;69572;-61
2023/02/11 03:36:06;;;;;;;42.10;20.60;;;;;;;14.38;31.22;101275.90;108069;1253;74014;-64
2023/02/11 03:38:37;;;;;;;51.30;23.00;;;;;;;14.51;30.89;101275.45;108200;1253;60002;-65
2023/02/11 03:41:05;;;;;;;52.40;24.80;;;;;;;14.24;31.09;101274.26;108201;1252;60606;-64
2023/02/11 03:43:45;;;;;;;40.00;20.10;;;;;;;14.52;31.07;101268.70;108123;1257;74302;-65
2023/02/11 03:46:14;;;;;;;57.20;25.10;;;;;;;14.42;30.99;101268.71;108261;1253;71344;-64
2023/02/11 03:48:45;;;;;;;51.90;24.30;;;;;;;14.09;31.38;101265.05;108133;1255;73163;-66
2023/02/11 03:51:13;;;;;;;51.20;23.50;;;;;;;14.19;31.57;101259.24;108235;1253;61201;-64
2023/02/11 03:53:42;;;;;;;63.40;26.60;;;;;;;14.41;31.00;101256.73;108125;1252;60381;-63
2023/02/11 03:56:16;;;;;;;47.30;21.70;;;;;;;14.32;31.33;101253.15;108137;1253;73985;-65
2023/02/11 03:58:44;;;;;;;52.70;23.90;;;;;;;14.50;31.00;101244.58;108296;1253;71522;-65
2023/02/11 04:01:12;;;;;;;49.60;23.70;;;;;;;14.61;30.96;101239.61;108180;1254;71766;-65
2023/02/11 04:03:41;;;;;;;51.10;23.20;;;;;;;14.76;30.70;101237.65;108248;1253;60366;-66
2023/02/11 04:06:09;;;;;;;48.90;22.30;;;;;;;14.80;30.51;101235.71;108271;1254;61255;-67
2023/02/11 04:08:37;;;;;;;51.60;23.00;;;;;;;14.73;30.62;101232.25;108242;1256;75466;-66
2023/02/11 04:11:11;;;;;;;45.20;21.10;;;;;;;14.36;31.20;101232.49;108253;1256;71347;-67
2023/02/11 04:13:39;;;;;;;54.60;23.90;;;;;;;14.51;31.04;101229.86;108234;1256;72722;-65
2023/02/11 04:16:07;;;;;;;57.30;22.20;;;;;;;14.15;31.45;101225.27;108257;1256;61236;-63
2023/02/11 04:18:41;;;;;;;52.60;22.10;;;;;;;13.94;31.77;101220.16;108109;1258;61546;-67
2023/02/11 04:21:09;;;;;;;47.70;22.30;;;;;;;13.91;31.62;101221.34;108370;1256;73543;-67
2023/02/11 04:23:37;;;;;;;50.50;23.70;;;;;;;14.22;31.53;101224.17;108316;1253;69715;-64
2023/02/11 04:26:06;;;;;;;52.30;24.20;;;;;;;14.51;31.06;101226.71;108296;1256;73874;-65
2023/02/11 04:28:35;;;;;;;50.80;21.30;;;;;;;14.41;31.24;101228.09;108165;1254;61321;-66
2023/02/11 04:31:03;;;;;;;49.30;20.80;;;;;;;14.07;31.53;101222.02;108184;1255;60629;-66
2023/02/11 04:33:32;;;;;;;49.90;22.70;;;;;;;14.12;31.53;101221.52;108124;1254;74502;-66
2023/02/11 04:36:00;;;;;;;46.80;20.90;;;;;;;14.27;31.63;101217.80;108139;1254;70835;-65
2023/02/11 04:38:28;;;;;;;57.90;24.20;;;;;;;14.25;31.48;101219.28;108138;1256;73831;-64
2023/02/11 04:40:57;;;;;;;53.60;23.50;;;;;;;14.05;31.74;101217.14;108177;1255;60287;-65
2023/02/11 04:43:26;;;;;;;54.20;22.10;;;;;;;13.65;32.59;101213.71;108139;1256;60410;-65
2023/02/11 04:45:57;;;;;;;60.80;23.60;;;;;;;13.88;32.09;101209.60;108173;1253;75045;-65
2023/02/11 04:48:26;;;;;;;48.50;21.60;;;;;;;14.11;31.93;101205.82;108125;1253;71363;-63
2023/02/11 04:50:54;;;;;;;60.70;23.80;;;;;;;13.90;32.25;101199.28;108183;1254;73837;-65
2023/02/11 04:53:22;;;;;;;56.50;23.80;;;;;;;14.01;31.89;101195.02;108195;1254;60334;-65
2023/02/11 04:55:50;;;;;;;46.30;23.00;;;;;;;13.84;32.44;101190.31;108138;1253;61069;-65
2023/02/11 04:58:19;;;;;;;54.20;23.40;;;;;;;14.10;31.86;101190.13;108160;1257;74033;-65
2023/02/11 05:00:47;;;;;;;50.60;22.60;;;;;;;14.09;31.84;101182.77;108133;1254;70574;-66
2023/02/11 05:03:16;;;;;;;50.60;23.00;;;;;;;13.99;32.02;101178.50;108139;1254;73936;-64
2023/02/11 05:05:44;;;;;;;59.00;23.30;;;;;;;13.83;32.20;101179.05;108207;1256;60477;-65
2023/02/11 05:08:12;;;;;;;55.80;24.10;;;;;;;13.68;32.46;101179.55;108153;1254;60954;-64
2023/02/11 05:10:45;;;;;;;58.60;26.10;;;;;;;13.92;32.18;101180.52;107982;1259;73996;-65
2023/02/11 05:13:14;;;;;;;61.60;25.60;;;;;;;14.28;31.62;101178.56;108163;1256;71527;-64
2023/02/11 05:15:42;;;;;;;54.30;22.10;;;;;;;14.37;31.51;101181.77;108135;1256;72492;-65
2023/02/11 05:18:10;;;;;;;66.10;26.80;;;;;;;14.12;31.73;101181.06;108106;1254;61383;-65
2023/02/11 05:20:41;;;;;;;68.20;26.00;;;;;;;14.16;31.66;101177.92;108138;1255;60380;-64
2023/02/11 05:23:11;;;;;;;53.30;22.40;;;;;;;14.34;31.52;101179.21;108171;1253;74927;-65
2023/02/11 05:25:40;;;;;;;57.60;24.30;;;;;;;14.31;31.31;101181.27;108147;1257;71388;-65
2023/02/11 05:28:08;;;;;;;49.70;21.70;;;;;;;14.17;31.58;101181.58;108192;1256;72589;-65
2023/02/11 05:30:37;;;;;;;55.20;24.10;;;;;;;13.93;31.69;101180.13;107959;1254;60627;-67
2023/02/11 05:33:05;;;;;;;57.70;24.40;;;;;;;14.19;31.34;101176.95;108178;1252;60609;-64
2023/02/11 05:35:34;;;;;;;58.30;24.20;;;;;;;14.36;31.12;101177.91;108188;1254;73515;-66
2023/02/11 05:38:02;;;;;;;69.80;28.20;;;;;;;14.26;31.21;101182.50;108064;1254;70583;-64
2023/02/11 05:40:31;;;;;;;64.30;26.80;;;;;;;14.37;31.06;101178.04;108225;1254;73167;-65
2023/02/11 05:42:59;;;;;;;54.90;22.70;;;;;;;14.30;31.09;101176.55;108210;1254;60745;-65
2023/02/11 05:45:27;;;;;;;52.20;25.30;;;;;;;13.99;31.38;101172.34;108253;1254;61339;-65
2023/02/11 05:47:56;;;;;;;51.30;22.70;;;;;;;14.06;31.36;101173.48;108255;1254;74380;-66
2023/02/11 05:50:24;;;;;;;66.10;25.80;;;;;;;13.99;31.40;101175.86;108257;1254;70576;-66
2023/02/11 05:52:53;;;;;;;58.70;23.10;;;;;;;14.05;31.36;101171.41;108229;1254;71831;-66
2023/02/11 05:55:21;;;;;;;53.00;24.30;;;;;;;14.01;31.47;101173.15;108293;1254;62044;-67
2023/02/11 05:57:50;;;;;;;57.90;25.70;;;;;;;13.74;31.83;101163.49;108208;1254;61534;-66
2023/02/11 06:00:19;;;;;;;60.50;26.70;;;;;;;13.95;31.89;101165.75;108138;1254;74920;-64
2023/02/11 06:02:47;;;;;;;73.00;30.80;;;;;;;14.10;31.80;101162.39;108242;1256;71520;-66
2023/02/11 06:05:16;;;;;;;77.10;31.40;;;;;;;13.98;31.98;101157.36;108244;1254;73617;-67
2023/02/11 06:07:46;;;;;;;67.60;29.00;;;;;;;14.08;32.13;101150.30;108186;1254;61775;-66
2023/02/11 06:10:14;;;;;;;81.90;32.30;;;;;;;13.65;32.67;101145.95;108233;1253;61026;-67
2023/02/11 06:12:43;;;;;;;73.90;29.60;;;;;;;13.09;33.39;101135.55;108087;1257;74869;-66
2023/02/11 06:15:14;;;;;;;79.90;35.40;;;;;;;12.99;33.76;101128.30;108195;1254;71249;-67
2023/02/11 06:17:42;;;;;;;74.60;31.80;;;;;;;12.74;34.20;101125.70;108236;1254;73825;-66
2023/02/11 06:20:14;;;;;;;70.00;29.70;;;;;;;12.95;34.20;101123.31;108216;1254;60388;-66
2023/02/11 06:22:42;;;;;;;73.70;31.50;;;;;;;12.87;34.26;101121.80;108198;1254;61034;-66
2023/02/11 06:25:10;;;;;;;65.40;28.80;;;;;;;12.62;34.64;101121.15;108038;1259;74541;-66
2023/02/11 06:27:39;;;;;;;66.40;27.60;;;;;;;12.71;34.63;101124.02;108199;1254;71143;-66
2023/02/11 06:30:08;;;;;;;77.70;33.60;;;;;;;12.35;35.48;101123.13;107984;1255;73486;-66
2023/02/11 06:32:38;;;;;;;;;;;;;;;12.39;35.41;101119.69;108207;1253;62227;-65
2023/02/11 06:35:13;;;;;;;70.30;30.70;;;;;;;12.63;35.41;101118.10;108112;1253;61234;-65
2023/02/11 06:37:41;;;;;;;73.50;32.00;;;;;;;13.36;34.32;101116.41;108213;1254;72206;-66
2023/02/11 06:40:10;;;;;;;84.40;33.40;;;;;;;13.42;34.31;101112.49;108019;1260;71317;-67
2023/02/11 06:42:38;;;;;;;82.80;35.40;;;;;;;13.34;34.41;101107.95;108079;1254;73608;-66
2023/02/11 06:45:12;;;;;;;75.00;31.90;;;;;;;13.48;34.14;101097.66;108009;1259;61211;-66
2023/02/11 06:47:40;;;;;;;75.30;32.60;;;;;;;13.57;34.35;101088.00;108029;1255;61230;-66
2023/02/11 06:50:11;;;;;;;83.60;34.70;;;;;;;13.46;34.34;101088.89;108145;1256;74814;-65
2023/02/11 06:52:40;;;;;;;70.80;31.20;;;;;;;13.40;34.41;101083.27;108034;1254;71469;-66
2023/02/11 06:55:08;;;;;;;71.00;31.50;;;;;;;13.40;34.56;101079.39;108132;1254;73673;-66
2023/02/11 06:57:37;;;;;;;77.90;33.40;;;;;;;13.57;34.29;101073.88;108078;1254;60285;-64
2023/02/11 07:00:07;;;;;;;67.30;30.70;;;;;;;13.59;34.19;101071.52;108038;1253;61313;-66
2023/02/11 07:02:38;;;;;;;86.20;34.60;;;;;;;13.66;34.06;101067.74;108053;1254;73636;-68
2023/02/11 07:05:07;;;;;;;82.20;32.50;;;;;;;14.02;33.50;101062.92;108040;1254;71649;-67
2023/02/11 07:07:35;;;;;;;87.60;36.70;;;;;;;13.82;33.89;101066.10;107938;1255;74010;-66
2023/02/11 07:10:07;;;;;;;80.20;34.40;;;;;;;14.04;33.39;101055.27;108062;1256;62099;-67
2023/02/11 07:12:39;;;;;;;68.50;31.60;;;;;;;14.56;32.76;101053.34;107962;1254;60457;-66
2023/02/11 07:15:07;;;;;;;75.60;30.80;;;;;;;14.50;32.82;101049.48;108033;1256;75127;-66
2023/02/11 07:17:35;;;;;;;75.20;32.50;;;;;;;14.46;32.83;101054.05;108050;1253;71583;-67
2023/02/11 07:20:04;;;;;;;60.70;25.40;;;;;;;14.92;32.26;101053.70;108089;1256;71812;-67
2023/02/11 07:22:33;;;;;;;78.20;31.60;;;;;;;14.10;33.08;101059.10;108063;1254;62107;-66
2023/02/11 07:25:03;;;;;;;66.30;28.10;;;;;;;14.54;32.60;101056.06;108020;1259;60318;-61
2023/02/11 07:27:32;;;;;;;71.70;29.00;;;;;;;14.40;32.85;101054.83;108040;1254;75061;-65
2023/02/11 07:30:00;;;;;;;68.20;30.90;;;;;;;14.52;32.51;101052.76;108260;1254;69778;-64
2023/02/11 07:32:28;;;;;;;68.30;29.60;;;;;;;14.89;32.20;101047.79;108265;1253;73997;-65
2023/02/11 07:34:56;;;;;;;70.70;29.90;;;;;;;14.86;32.30;101045.60;108238;1254;60792;-66
2023/02/11 07:37:25;;;;;;;72.80;28.80;;;;;;;15.25;31.75;101044.38;108271;1254;61608;-66
2023/02/11 07:39:54;;;;;;;71.00;29.90;;;;;;;15.46;31.50;101048.11;108297;1254;74702;-66
2023/02/11 07:42:22;;;;;;;68.80;30.00;;;;;;;15.61;30.99;101047.45;108283;1254;71563;-65
2023/02/11 07:44:50;;;;;;;74.20;28.30;;;;;;;15.31;31.27;101047.67;108251;1254;73853;-67
2023/02/11 07:47:19;;;;;;;60.30;25.70;;;;;;;15.11;31.78;101045.28;108282;1254;61898;-65
2023/02/11 07:49:49;;;;;;;75.80;30.80;;;;;;;15.38;31.31;101043.47;108308;1251;60505;-67
2023/02/11 07:52:17;;;;;;;60.90;27.00;;;;;;;15.91;30.65;101043.14;108335;1251;73209;-68
2023/02/11 07:54:47;;;;;;;62.10;27.30;;;;;;;15.78;30.75;101038.41;108332;1251;71333;-66
2023/02/11 07:57:15;;;;;;;64.00;27.90;;;;;;;15.75;30.61;101026.16;108332;1251;73912;-68
2023/02/11 07:59:44;;;;;;;57.40;26.30;;;;;;;15.50;31.23;101019.96;108366;1251;61715;-65
2023/02/11 08:02:12;;;;;;;70.00;29.50;;;;;;;15.25;31.44;101012.70;108314;1251;60552;-65
2023/02/11 08:04:41;;;;;;;70.70;28.10;;;;;;;15.32;31.44;101005.52;108282;1251;73793;-66
2023/02/11 08:07:09;;;;;;;64.90;28.00;;;;;;;14.84;32.25;101004.48;108283;1251;71057;-64
2023/02/11 08:09:40;;;;;;;;;;;;;;;14.46;32.63;100998.05;108037;1259;73643;-65
2023/02/11 08:12:08;;;;;;;70.30;27.90;;;;;;;14.51;33.08;100995.04;108237;1251;60339;-65
2023/02/11 08:14:37;;;;;;;83.20;32.00;;;;;;;14.34;33.31;100993.75;108358;1251;61363;-66
2023/02/11 08:17:05;;;;;;;74.90;30.30;;;;;;;14.68;32.83;100992.42;108300;1251;74858;-65
2023/02/11 08:19:34;;;;;;;65.50;28.80;;;;;;;14.75;33.11;100987.73;108255;1251;71402;-67
2023/02/11 08:22:02;;;;;;;71.90;29.80;;;;;;;14.72;33.15;100985.38;108284;1251;70829;-66
2023/02/11 08:24:30;;;;;;;71.30;27.70;;;;;;;15.37;32.47;100980.85;108207;1255;62489;-66
2023/02/11 08:27:03;;;;;;;75.50;30.40;;;;;;;15.59;32.36;100979.05;108299;1251;61464;-66
2023/02/11 08:29:31;;;;;;;66.90;27.50;;;;;;;16.04;31.63;100971.54;108021;1253;74790;-67
2023/02/11 08:31:59;;;;;;;70.10;28.50;;;;;;;15.97;31.87;100964.25;108175;1254;71461;-66
2023/02/11 08:34:28;;;;;;;66.90;28.90;;;;;;;16.11;31.76;100963.79;108150;1254;73611;-65
2023/02/11 08:36:56;;;;;;;70.90;27.90;;;;;;;16.22;31.56;100962.20;108127;1254;60566;-65
2023/02/11 08:39:24;;;;;;;63.80;27.40;;;;;;;15.74;32.24;100967.05;108229;1253;61037;-66
2023/02/11 08:41:55;;;;;;;73.10;30.40;;;;;;;16.37;31.30;100964.84;108201;1253;74850;-66
2023/02/11 08:44:23;;;;;;;62.10;28.30;;;;;;;16.49;31.26;100963.23;108063;1254;71302;-66
2023/02/11 08:46:52;;;;;;;76.30;31.00;;;;;;;16.04;31.84;100963.00;108178;1253;73627;-67
2023/02/11 08:49:20;;;;;;;70.80;28.20;;;;;;;15.77;32.11;100960.53;108175;1252;62229;-66
2023/02/11 08:51:49;;;;;;;72.40;26.80;;;;;;;15.82;32.29;100956.58;108106;1252;61625;-66
2023/02/11 08:54:18;;;;;;;73.20;29.80;;;;;;;16.20;31.73;100947.04;108188;1254;74715;-68
2023/02/11 08:56:49;;;;;;;73.90;28.90;;;;;;;16.18;31.69;100947.17;108060;1259;71661;-66
2023/02/11 08:59:18;;;;;;;68.40;27.80;;;;;;;15.94;32.24;100943.85;108258;1252;70785;-67
2023/02/11 09:01:47;;;;;;;76.00;28.70;;;;;;;15.68;32.43;100939.52;108258;1253;62420;-66
2023/02/11 09:04:16;;;;;;;74.10;27.70;;;;;;;15.96;32.17;100937.19;108169;1254;60538;-64
2023/02/11 09:06:44;;;;;;;77.70;29.70;;;;;;;14.69;34.01;100939.85;108183;1257;74883;-65
2023/02/11 09:09:13;;;;;;;67.70;28.30;;;;;;;14.58;34.28;100933.98;108230;1253;71767;-66
2023/02/11 09:11:42;;;;;;;72.00;28.40;;;;;;;14.74;34.15;100938.46;108211;1255;71994;-67
2023/02/11 09:14:15;;;;;;;69.80;30.20;;;;;;;14.67;34.27;100937.66;108149;1253;60598;-66
2023/02/11 09:16:43;;;;;;;70.20;26.50;;;;;;;14.63;34.30;100933.26;107889;1253;60522;-66
2023/02/11 09:19:14;;;;;;;66.70;28.80;;;;;;;14.38;34.90;100923.62;108167;1253;73113;-65
2023/02/11 09:21:42;;;;;;;69.70;29.80;;;;;;;14.58;34.37;100910.98;108156;1253;71592;-67
2023/02/11 09:24:10;;;;;;;64.90;28.20;;;;;;;14.63;34.65;100906.54;108203;1253;72523;-65
2023/02/11 09:26:40;;;;;;;75.50;31.30;;;;;;;15.05;33.98;100895.45;108180;1253;62286;-66
2023/02/11 09:29:08;;;;;;;82.40;33.40;;;;;;;15.68;33.15;100884.29;108236;1251;60174;-66
2023/02/11 09:31:37;;;;;;;79.80;31.10;;;;;;;15.45;33.43;100876.83;108305;1251;75040;-66
2023/02/11 09:34:06;;;;;;;86.20;33.60;;;;;;;15.42;33.31;100881.20;108239;1251;71168;-65
2023/02/11 09:36:37;;;;;;;80.10;32.50;;;;;;;15.43;33.30;100880.46;108294;1251;73262;-66
2023/02/11 09:39:07;;;;;;;84.70;31.10;;;;;;;15.73;33.28;100876.45;108296;1251;60325;-65
2023/02/11 09:42:14;;;;;;;88.10;34.40;;;;;;;15.92;32.70;100873.77;108298;1251;61540;-66
2023/02/11 09:44:43;;;;;;;74.50;32.40;;;;;;;15.99;32.61;100873.30;108271;1251;74776;-67
2023/02/11 09:47:28;;;;;;;80.90;32.80;;;;;;;15.95;32.91;100873.67;108268;1251;70868;-66
2023/02/11 09:50:20;;;;;;;83.50;34.10;;;;;;;16.08;32.47;100871.83;108062;1257;73555;-67
2023/02/11 09:52:52;;;;;;;77.90;33.00;;;;;;;16.29;32.19;100864.80;108283;1251;61402;-66
2023/02/11 09:55:29;;;;;;;82.60;33.40;;;;;;;16.52;31.97;100867.50;108312;1251;61686;-66
2023/02/11 09:57:57;;;;;;;91.30;33.80;;;;;;;16.59;31.69;100855.84;108281;1251;75304;-66
2023/02/11 10:00:38;;;;;;;76.40;29.90;;;;;;;16.77;31.56;100846.60;108044;1251;71060;-66
2023/02/11 10:03:25;;;;;;;79.10;33.70;;;;;;;16.49;32.16;100844.83;108256;1251;72241;-67
2023/02/11 10:06:12;;;;;;;87.00;36.00;;;;;;;16.62;31.78;100839.36;108257;1251;60427;-67
2023/02/11 10:09:07;;;;;;;81.80;33.70;;;;;;;16.43;32.01;100833.60;108319;1251;61166;-67
2023/02/11 10:11:55;;;;;;;79.00;31.30;;;;;;;16.37;32.34;100828.04;108369;1251;75056;-67
2023/02/11 10:14:42;;;;;;;84.00;34.50;;;;;;;16.91;31.63;100824.08;108389;1251;71258;-66
2023/02/11 10:17:16;;;;;;;72.00;30.00;;;;;;;17.09;31.37;100819.73;108293;1251;72135;-67
2023/02/11 10:20:15;;;;;;;71.80;28.00;;;;;;;17.37;31.24;100813.30;108303;1251;62116;-65
2023/02/11 10:23:36;;;;;;;78.10;31.40;;;;;;;17.57;30.91;100803.31;108298;1256;60410;-62
2023/02/11 10:26:13;;;;;;;67.90;29.40;;;;;;;17.76;30.32;100788.38;108101;1251;74819;-68
2023/02/11 10:28:43;;;;;;;74.60;28.20;;;;;;;17.90;30.40;100787.27;108230;1251;71553;-65
2023/02/11 10:31:23;;;;;;;85.50;33.70;;;;;;;17.55;31.12;100780.69;107981;1251;72934;-65
2023/02/11 10:34:03;;;;;;;75.10;30.20;;;;;;;17.22;31.22;100774.50;108041;1251;62462;-65
2023/02/11 10:36:34;;;;;;;69.00;29.40;;;;;;;17.11;31.64;100770.86;108156;1251;60433;-63
2023/02/11 10:39:11;;;;;;;68.60;29.80;;;;;;;17.28;31.63;100766.05;108190;1251;75021;-67
2023/02/11 10:41:54;;;;;;;76.90;32.80;;;;;;;17.08;31.63;100769.75;108115;1251;71560;-65
2023/02/11 10:44:32;;;;;;;65.70;29.40;;;;;;;17.28;31.34;100766.92;108177;1251;73429;-64
2023/02/11 10:47:17;;;;;;;65.20;29.40;;;;;;;16.89;32.22;100756.97;108093;1251;61590;-65
2023/02/11 10:49:47;;;;;;;86.30;30.70;;;;;;;18.12;30.53;100751.34;108114;1251;61182;-66
2023/02/11 10:52:22;;;;;;;65.90;27.80;;;;;;;18.41;30.20;100751.80;108144;1251;74052;-62
2023/02/11 10:55:19;;;;;;;70.90;30.70;;;;;;;17.84;30.98;100748.01;108345;1251;71219;-68
2023/02/11 10:57:54;;;;;;;67.90;27.70;;;;;;;18.34;30.20;100738.48;108085;1251;73994;-66
2023/02/11 11:00:36;;;;;;;71.70;28.90;;;;;;;18.60;30.10;100733.35;108225;1251;60323;-68
2023/02/11 11:03:19;;;;;;;78.30;31.50;;;;;;;19.29;29.17;100727.61;108144;1251;61329;-65
2023/02/11 11:05:48;;;;;;;73.80;33.10;;;;;;;17.10;31.69;100725.69;108345;1251;74899;-66
2023/02/11 11:08:17;;;;;;;73.70;29.80;;;;;;;17.91;31.32;100713.45;108376;1251;70685;-66
2023/02/11 11:11:07;;;;;;;73.20;31.20;;;;;;;17.26;32.13;100707.55;108300;1251;72344;-67
2023/02/11 11:13:41;;;;;;;75.60;31.80;;;;;;;17.28;32.03;100695.58;108349;1251;60920;-66
2023/02/11 11:16:12;;;;;;;73.80;32.60;;;;;;;17.18;32.36;100689.21;108358;1251;60361;-66
2023/02/11 11:18:43;;;;;;;66.70;31.10;;;;;;;17.22;32.43;100686.13;108309;1256;74804;-66
2023/02/11 11:21:17;;;;;;;81.40;36.30;;;;;;;17.77;31.70;100682.66;108336;1251;69169;-66
2023/02/11 11:23:58;;;;;;;69.30;32.40;;;;;;;17.34;32.30;100675.56;108315;1251;72899;-66
2023/02/11 11:26:37;;;;;;;77.40;34.80;;;;;;;17.21;32.60;100669.51;108299;1251;60849;-66
2023/02/11 11:29:08;;;;;;;71.60;30.00;;;;;;;17.67;31.77;100666.23;108311;1251;60462;-67